createdAt,value
2023-03-29T00:02:19.720Z,4.66
2023-03-29T00:04:47.126Z,4.70
2023-03-29T00:07:14.166Z,4.65
2023-03-29T00:09:41.512Z,4.65
2023-03-29T00:12:08.421Z,4.65
2023-03-29T00:14:35.296Z,4.71
2023-03-29T00:17:02.382Z,4.66
2023-03-29T00:19:35.474Z,4.70
2023-03-29T00:22:05.957Z,4.73
2023-03-29T00:24:32.958Z,4.67
2023-03-29T00:26:59.955Z,4.71
2023-03-29T00:29:27.031Z,4.68
2023-03-29T00:31:55.900Z,4.60
2023-03-29T00:34:24.663Z,4.54
2023-03-29T00:36:52.976Z,4.53
2023-03-29T00:39:21.129Z,4.59
2023-03-29T00:41:50.248Z,4.57
2023-03-29T00:44:59.748Z,4.51
2023-03-29T00:47:50.255Z,4.42
2023-03-29T00:50:41.265Z,4.42
2023-03-29T00:53:38.509Z,4.39
2023-03-29T00:56:14.222Z,4.47
2023-03-29T00:58:54.793Z,4.36
2023-03-29T01:01:50.432Z,4.24
2023-03-29T01:04:29.506Z,4.23
2023-03-29T01:07:18.561Z,4.23
2023-03-29T01:09:53.197Z,4.17
2023-03-29T01:12:26.857Z,4.13
2023-03-29T01:15:01.533Z,4.02
2023-03-29T01:17:31.696Z,3.97
2023-03-29T01:20:10.797Z,3.96
2023-03-29T01:23:21.486Z,4.08
2023-03-29T01:26:34.650Z,3.95
2023-03-29T01:29:21.226Z,3.78
2023-03-29T01:32:00.269Z,3.70
2023-03-29T01:34:54.408Z,3.75
2023-03-29T01:37:32.893Z,3.69
2023-03-29T01:40:01.213Z,3.68
2023-03-29T01:42:50.280Z,3.57
2023-03-29T01:45:48.512Z,3.52
2023-03-29T01:48:41.007Z,3.64
2023-03-29T01:51:41.651Z,3.57
2023-03-29T01:54:20.150Z,3.46
2023-03-29T01:56:50.458Z,3.54
2023-03-29T01:59:22.863Z,3.56
2023-03-29T02:01:57.518Z,3.58
2023-03-29T02:04:34.598Z,3.48
2023-03-29T02:07:05.147Z,3.52
2023-03-29T02:09:33.935Z,3.53
2023-03-29T02:12:06.282Z,3.53
2023-03-29T02:14:33.271Z,3.51
2023-03-29T02:17:27.080Z,3.56
2023-03-29T02:20:17.301Z,3.55
2023-03-29T02:22:57.392Z,3.55
2023-03-29T02:25:25.928Z,3.46
2023-03-29T02:27:53.888Z,3.40
2023-03-29T02:30:21.437Z,3.36
2023-03-29T02:32:54.121Z,3.38
2023-03-29T02:35:35.110Z,3.44
2023-03-29T02:38:07.818Z,3.44
2023-03-29T02:40:37.666Z,3.48
2023-03-29T02:43:07.680Z,3.54
2023-03-29T02:45:37.168Z,3.51
2023-03-29T02:48:10.274Z,3.55
2023-03-29T02:50:40.594Z,3.47
2023-03-29T02:53:16.262Z,3.46
2023-03-29T02:55:46.832Z,3.45
2023-03-29T02:58:15.489Z,3.46
2023-03-29T03:00:47.262Z,3.39
2023-03-29T03:03:17.768Z,3.41
2023-03-29T03:05:49.077Z,3.32
2023-03-29T03:08:16.126Z,3.33
2023-03-29T03:10:43.104Z,3.49
2023-03-29T03:13:10.124Z,3.46
2023-03-29T03:15:37.368Z,3.46
2023-03-29T03:18:04.758Z,3.48
2023-03-29T03:20:33.464Z,3.45
2023-03-29T03:23:03.232Z,3.42
2023-03-29T03:25:31.670Z,3.42
2023-03-29T03:27:59.212Z,3.44
2023-03-29T03:30:26.113Z,3.42
2023-03-29T03:33:11.742Z,3.42
2023-03-29T03:36:14.155Z,3.42
2023-03-29T03:38:44.106Z,3.48
2023-03-29T03:41:11.716Z,3.56
2023-03-29T03:43:41.475Z,3.51
2023-03-29T03:46:08.737Z,3.49
2023-03-29T03:48:37.120Z,3.57
2023-03-29T03:51:27.139Z,3.57
2023-03-29T03:53:54.565Z,3.52
2023-03-29T03:56:44.592Z,3.44
2023-03-29T03:59:23.767Z,3.47
2023-03-29T04:02:01.696Z,3.47
2023-03-29T04:04:29.767Z,3.46
2023-03-29T04:07:17.868Z,3.45
2023-03-29T04:10:13.461Z,3.45
2023-03-29T04:13:05.170Z,3.53
2023-03-29T04:15:38.513Z,3.47
2023-03-29T04:18:09.513Z,3.53
2023-03-29T04:20:44.784Z,3.51
2023-03-29T04:23:12.573Z,3.52
2023-03-29T04:25:40.696Z,3.44
2023-03-29T04:28:26.203Z,3.48
2023-03-29T04:31:15.730Z,3.49
2023-03-29T04:33:53.970Z,3.52
2023-03-29T04:36:21.346Z,3.48
2023-03-29T04:38:48.789Z,3.49
2023-03-29T04:41:16.620Z,3.47
2023-03-29T04:43:56.022Z,3.51
2023-03-29T04:46:27.678Z,3.48
2023-03-29T04:49:13.421Z,3.53
2023-03-29T04:51:47.694Z,3.57
2023-03-29T04:54:17.507Z,3.67
2023-03-29T04:57:08.756Z,3.66
2023-03-29T04:59:35.860Z,3.67
2023-03-29T05:02:10.738Z,3.68
2023-03-29T05:04:40.880Z,3.77
2023-03-29T05:07:13.070Z,3.75
2023-03-29T05:09:41.684Z,3.74
2023-03-29T05:12:09.932Z,3.72
2023-03-29T05:14:48.077Z,3.75
2023-03-29T05:17:15.050Z,3.74
2023-03-29T05:19:43.627Z,3.77
2023-03-29T05:22:10.779Z,3.78
2023-03-29T05:24:37.933Z,3.79
2023-03-29T05:27:13.772Z,3.89
2023-03-29T05:29:42.564Z,3.95
2023-03-29T05:32:31.010Z,4.00
2023-03-29T05:34:57.922Z,3.96
2023-03-29T05:37:26.590Z,3.92
2023-03-29T05:40:05.732Z,4.01
2023-03-29T05:42:39.140Z,4.05
2023-03-29T05:45:09.408Z,4.13
2023-03-29T05:47:36.909Z,4.22
2023-03-29T05:50:05.553Z,4.31
2023-03-29T05:52:32.604Z,4.33
2023-03-29T05:54:59.852Z,4.39
2023-03-29T05:57:27.409Z,4.37
2023-03-29T05:59:55.001Z,4.37
2023-03-29T06:02:22.814Z,4.50
2023-03-29T06:04:53.931Z,4.59
2023-03-29T06:07:24.580Z,4.69
2023-03-29T06:10:12.409Z,4.73
2023-03-29T06:12:43.207Z,4.90
2023-03-29T06:15:10.806Z,4.82
2023-03-29T06:17:47.805Z,4.68
2023-03-29T06:20:17.032Z,4.67
2023-03-29T06:22:48.458Z,4.81
2023-03-29T06:25:17.469Z,4.85
2023-03-29T06:27:47.327Z,4.81
2023-03-29T06:30:17.013Z,4.83
2023-03-29T06:32:50.565Z,4.96
2023-03-29T06:35:49.657Z,5.15
2023-03-29T06:38:20.858Z,5.16
2023-03-29T06:41:07.476Z,5.24
2023-03-29T06:43:54.709Z,5.10
2023-03-29T06:46:24.525Z,5.26
2023-03-29T06:48:56.970Z,5.38
2023-03-29T06:51:29.853Z,5.30
2023-03-29T06:53:56.796Z,5.34
2023-03-29T06:56:23.878Z,5.32
2023-03-29T06:58:59.828Z,5.51
2023-03-29T07:01:34.615Z,5.65
2023-03-29T07:04:11.781Z,5.66
2023-03-29T07:07:01.674Z,5.72
2023-03-29T07:09:32.228Z,5.86
2023-03-29T07:12:17.644Z,5.95
2023-03-29T07:14:46.612Z,6.01
2023-03-29T07:17:14.873Z,5.91
2023-03-29T07:19:42.327Z,6.08
2023-03-29T07:22:32.413Z,6.14
2023-03-29T07:25:01.392Z,6.35
2023-03-29T07:27:30.399Z,6.52
2023-03-29T07:29:58.524Z,6.70
2023-03-29T07:32:25.551Z,6.78
2023-03-29T07:35:19.517Z,6.92
2023-03-29T07:37:47.555Z,6.89
2023-03-29T07:40:23.833Z,6.83
2023-03-29T07:43:11.643Z,6.88
2023-03-29T07:45:42.323Z,7.06
2023-03-29T07:48:11.375Z,7.29
2023-03-29T07:50:59.106Z,7.20
2023-03-29T07:53:32.229Z,7.22
2023-03-29T07:56:02.235Z,7.32
2023-03-29T07:58:49.459Z,7.50
2023-03-29T08:01:20.431Z,7.47
2023-03-29T08:04:03.046Z,7.80
2023-03-29T08:06:50.590Z,7.87
2023-03-29T08:09:18.504Z,8.03
2023-03-29T08:11:45.413Z,8.07
2023-03-29T08:14:24.956Z,8.12
2023-03-29T08:16:57.783Z,8.20
2023-03-29T08:19:25.772Z,8.02
2023-03-29T08:22:01.383Z,8.26
2023-03-29T08:24:36.331Z,8.34
2023-03-29T08:27:06.653Z,8.49
2023-03-29T08:29:33.879Z,8.51
2023-03-29T08:32:00.880Z,8.44
2023-03-29T08:34:28.730Z,8.34
2023-03-29T08:37:18.101Z,7.92
2023-03-29T08:39:48.456Z,7.85
2023-03-29T08:43:09.759Z,8.00
2023-03-29T08:46:44.623Z,8.19
2023-03-29T08:49:27.201Z,8.41
2023-03-29T08:52:05.225Z,8.52
2023-03-29T08:54:45.467Z,8.71
2023-03-29T08:57:48.471Z,8.45
2023-03-29T09:00:49.572Z,8.54
2023-03-29T09:03:23.886Z,8.84
2023-03-29T09:06:10.962Z,9.04
2023-03-29T09:08:47.640Z,9.37
2023-03-29T09:11:57.660Z,9.41
2023-03-29T09:14:56.793Z,9.34
2023-03-29T09:17:32.554Z,9.26
2023-03-29T09:20:33.226Z,9.49
2023-03-29T09:23:07.006Z,9.52
2023-03-29T09:26:23.670Z,9.94
2023-03-29T09:29:37.373Z,10.25
2023-03-29T09:32:19.530Z,10.21
2023-03-29T09:35:18.458Z,10.10
2023-03-29T09:37:49.882Z,10.08
2023-03-29T09:40:50.134Z,10.01
2023-03-29T09:43:36.150Z,10.31
2023-03-29T09:46:16.085Z,9.97
2023-03-29T09:48:45.486Z,10.24
2023-03-29T09:51:13.541Z,10.66
2023-03-29T09:53:40.976Z,11.02
2023-03-29T09:56:31.183Z,11.07
2023-03-29T09:59:12.229Z,11.02
2023-03-29T10:01:45.501Z,10.99
2023-03-29T10:04:14.469Z,10.93
2023-03-29T10:06:51.755Z,11.02
2023-03-29T10:09:24.696Z,11.30
2023-03-29T10:12:05.645Z,11.18
2023-03-29T10:14:46.458Z,11.33
2023-03-29T10:17:25.309Z,11.52
2023-03-29T10:19:58.364Z,11.89
2023-03-29T10:22:36.327Z,11.58
2023-03-29T10:25:09.487Z,11.94
2023-03-29T10:27:36.565Z,11.96
2023-03-29T10:30:14.685Z,11.82
2023-03-29T10:32:42.027Z,11.26
2023-03-29T10:35:20.555Z,10.97
2023-03-29T10:37:52.141Z,10.86
2023-03-29T10:40:40.759Z,10.94
2023-03-29T10:43:32.232Z,11.54
2023-03-29T10:46:43.250Z,11.58
2023-03-29T10:49:22.366Z,11.93
2023-03-29T10:51:52.018Z,12.16
2023-03-29T10:54:24.156Z,11.95
2023-03-29T10:57:05.466Z,12.00
2023-03-29T10:59:44.950Z,12.15
2023-03-29T11:02:14.805Z,11.82
2023-03-29T11:05:16.392Z,11.79
2023-03-29T11:08:31.157Z,11.70
2023-03-29T11:11:26.391Z,11.16
2023-03-29T11:14:09.369Z,11.01
2023-03-29T11:17:23.197Z,11.30
2023-03-29T11:20:14.273Z,11.37
2023-03-29T11:22:52.288Z,11.44
2023-03-29T11:25:40.833Z,11.36
2023-03-29T11:28:52.944Z,11.19
2023-03-29T11:31:46.529Z,11.38
2023-03-29T11:35:08.893Z,11.96
2023-03-29T11:37:53.938Z,12.61
2023-03-29T11:40:50.045Z,12.72
2023-03-29T11:43:41.716Z,12.63
2023-03-29T11:46:12.140Z,12.06
2023-03-29T11:49:12.773Z,12.07
2023-03-29T11:51:57.045Z,12.02
2023-03-29T11:54:48.073Z,11.82
2023-03-29T11:57:25.969Z,11.55
2023-03-29T12:00:15.778Z,11.62
2023-03-29T12:02:58.339Z,11.62
2023-03-29T12:05:49.275Z,11.43
2023-03-29T12:08:24.573Z,11.13
2023-03-29T12:11:18.809Z,10.96
2023-03-29T12:14:15.553Z,10.69
2023-03-29T12:16:52.878Z,10.97
2023-03-29T12:19:41.718Z,11.16
2023-03-29T12:22:10.558Z,11.22
2023-03-29T12:24:43.470Z,11.28
2023-03-29T12:27:20.653Z,11.59
2023-03-29T12:30:03.912Z,11.90
2023-03-29T12:32:54.992Z,11.75
2023-03-29T12:36:25.009Z,11.56
2023-03-29T12:39:24.663Z,11.72
2023-03-29T12:42:27.200Z,11.58
2023-03-29T12:45:31.321Z,11.61
2023-03-29T12:48:00.702Z,11.63
2023-03-29T12:50:34.548Z,11.62
2023-03-29T12:53:32.996Z,11.63
2023-03-29T12:56:03.148Z,11.47
2023-03-29T12:58:39.416Z,11.36
2023-03-29T13:01:31.139Z,11.28
2023-03-29T13:04:02.029Z,11.01
2023-03-29T13:07:02.745Z,10.75
2023-03-29T13:09:37.744Z,10.97
2023-03-29T13:12:08.050Z,11.01
2023-03-29T13:14:49.907Z,11.08
2023-03-29T13:17:51.432Z,11.12
2023-03-29T13:20:37.787Z,11.26
2023-03-29T13:23:50.719Z,11.27
2023-03-29T13:26:32.502Z,11.41
2023-03-29T13:29:48.048Z,11.58
2023-03-29T13:32:36.515Z,11.88
2023-03-29T13:35:28.615Z,12.19
2023-03-29T13:38:31.363Z,12.33
2023-03-29T13:41:12.236Z,12.52
2023-03-29T13:43:56.283Z,12.60
2023-03-29T13:46:44.394Z,12.98
2023-03-29T13:49:22.498Z,13.30
2023-03-29T13:52:12.796Z,13.72
2023-03-29T13:54:47.535Z,13.89
2023-03-29T13:57:25.559Z,13.38
2023-03-29T14:00:07.188Z,13.71
2023-03-29T14:02:55.076Z,13.95
2023-03-29T14:05:35.937Z,14.23
2023-03-29T14:08:16.821Z,14.29
2023-03-29T14:10:45.281Z,14.50
2023-03-29T14:13:19.230Z,14.83
2023-03-29T14:15:50.495Z,14.96
2023-03-29T14:18:25.444Z,15.07
2023-03-29T14:20:55.109Z,14.69
2023-03-29T14:23:26.111Z,14.79
2023-03-29T14:25:53.273Z,14.49
2023-03-29T14:28:27.043Z,14.18
2023-03-29T14:30:56.000Z,14.28
2023-03-29T14:33:33.471Z,14.40
2023-03-29T14:36:05.106Z,14.74
2023-03-29T14:38:32.555Z,14.38
2023-03-29T14:41:01.733Z,14.02
2023-03-29T14:43:31.891Z,14.13
2023-03-29T14:46:05.643Z,14.63
2023-03-29T14:48:33.352Z,14.76
2023-03-29T14:51:01.310Z,14.73
2023-03-29T14:53:31.912Z,14.61
2023-03-29T14:55:59.600Z,14.65
2023-03-29T14:58:34.243Z,14.46
2023-03-29T15:01:10.560Z,13.93
2023-03-29T15:03:57.472Z,13.90
2023-03-29T15:06:26.329Z,13.90
2023-03-29T15:09:04.320Z,13.98
2023-03-29T15:11:34.470Z,14.43
2023-03-29T15:14:08.704Z,14.52
2023-03-29T15:16:47.426Z,14.44
2023-03-29T15:19:18.738Z,14.20
2023-03-29T15:21:49.283Z,14.01
2023-03-29T15:24:31.405Z,13.87
2023-03-29T15:27:05.562Z,13.64
2023-03-29T15:29:42.412Z,13.82
2023-03-29T15:32:19.942Z,13.81
2023-03-29T15:34:57.448Z,13.87
2023-03-29T15:37:24.578Z,13.73
2023-03-29T15:39:52.055Z,13.53
2023-03-29T15:42:19.159Z,13.46
2023-03-29T15:44:46.123Z,13.34
2023-03-29T15:47:13.292Z,13.37
2023-03-29T15:49:40.893Z,13.30
2023-03-29T15:52:07.838Z,13.25
2023-03-29T15:54:37.055Z,13.39
2023-03-29T15:57:10.932Z,13.34
2023-03-29T15:59:38.016Z,13.40
2023-03-29T16:02:05.631Z,13.46
2023-03-29T16:04:32.650Z,13.38
2023-03-29T16:07:00.408Z,13.47
2023-03-29T16:09:27.474Z,13.29
2023-03-29T16:11:54.710Z,13.23
2023-03-29T16:14:27.717Z,13.26
2023-03-29T16:16:57.227Z,13.31
2023-03-29T16:19:25.934Z,13.11
2023-03-29T16:21:53.546Z,13.10
2023-03-29T16:24:27.578Z,13.01
2023-03-29T16:26:56.477Z,12.93
2023-03-29T16:29:24.849Z,12.83
2023-03-29T16:31:53.095Z,12.90
2023-03-29T16:34:21.677Z,12.67
2023-03-29T16:36:50.152Z,12.63
2023-03-29T16:39:18.202Z,12.60
2023-03-29T16:41:48.306Z,12.52
2023-03-29T16:44:23.777Z,12.39
2023-03-29T16:46:53.844Z,12.51
2023-03-29T16:49:21.545Z,12.55
2023-03-29T16:51:48.681Z,12.46
2023-03-29T16:54:20.092Z,12.39
2023-03-29T16:56:47.293Z,12.34
2023-03-29T16:59:14.414Z,12.29
2023-03-29T17:01:41.656Z,12.29
2023-03-29T17:04:09.398Z,12.27
2023-03-29T17:06:36.551Z,12.26
2023-03-29T17:09:06.027Z,12.26
2023-03-29T17:11:33.660Z,12.23
2023-03-29T17:14:00.721Z,12.10
2023-03-29T17:16:29.044Z,12.06
2023-03-29T17:19:00.242Z,11.98
2023-03-29T17:21:28.904Z,11.91
2023-03-29T17:23:55.963Z,11.87
2023-03-29T17:26:23.262Z,11.86
2023-03-29T17:28:50.526Z,11.83
2023-03-29T17:31:19.360Z,11.75
2023-03-29T17:33:47.232Z,11.69
2023-03-29T17:36:14.420Z,11.66
2023-03-29T17:38:42.765Z,11.60
2023-03-29T17:41:09.913Z,11.60
2023-03-29T17:43:36.891Z,11.60
2023-03-29T17:46:04.451Z,11.64
2023-03-29T17:48:32.886Z,11.56
2023-03-29T17:51:00.135Z,11.50
2023-03-29T17:53:27.360Z,11.53
2023-03-29T17:55:54.331Z,11.55
2023-03-29T17:58:21.456Z,11.54
2023-03-29T18:00:48.673Z,11.48
2023-03-29T18:03:15.718Z,11.42
2023-03-29T18:05:42.782Z,11.38
2023-03-29T18:08:09.859Z,11.27
2023-03-29T18:10:36.968Z,11.33
2023-03-29T18:13:03.903Z,11.20
2023-03-29T18:15:30.907Z,11.18
2023-03-29T18:17:57.859Z,11.25
2023-03-29T18:20:26.264Z,11.23
2023-03-29T18:22:53.145Z,11.10
2023-03-29T18:25:20.277Z,11.10
2023-03-29T18:27:47.243Z,11.09
2023-03-29T18:30:16.944Z,11.07
2023-03-29T18:32:44.383Z,11.05
2023-03-29T18:35:12.108Z,11.07
2023-03-29T18:37:39.051Z,11.02
2023-03-29T18:40:08.273Z,10.89
2023-03-29T18:42:35.392Z,10.72
2023-03-29T18:45:02.784Z,10.59
2023-03-29T18:47:30.356Z,10.58
2023-03-29T18:49:57.759Z,10.47
2023-03-29T18:52:24.665Z,10.36
2023-03-29T18:54:51.895Z,10.35
2023-03-29T18:57:19.332Z,10.36
2023-03-29T18:59:46.431Z,10.34
2023-03-29T19:02:14.100Z,10.34
2023-03-29T19:04:41.161Z,10.38
2023-03-29T19:07:08.856Z,10.38
2023-03-29T19:09:35.911Z,10.44
2023-03-29T19:12:03.558Z,10.24
2023-03-29T19:14:30.589Z,10.09
2023-03-29T19:16:57.581Z,9.99
2023-03-29T19:19:26.333Z,9.92
2023-03-29T19:21:53.592Z,9.90
2023-03-29T19:24:20.800Z,9.89
2023-03-29T19:26:50.069Z,9.85
2023-03-29T19:29:17.092Z,9.86
2023-03-29T19:31:44.169Z,9.94
2023-03-29T19:34:11.518Z,9.90
2023-03-29T19:36:38.640Z,9.90
2023-03-29T19:39:06.251Z,9.95
2023-03-29T19:41:33.345Z,9.91
2023-03-29T19:44:00.419Z,10.00
2023-03-29T19:46:28.888Z,10.01
2023-03-29T19:48:56.253Z,10.06
2023-03-29T19:51:23.577Z,10.07
2023-03-29T19:53:50.691Z,10.03
2023-03-29T19:56:17.867Z,10.03
2023-03-29T19:58:44.969Z,10.02
2023-03-29T20:01:15.529Z,10.13
2023-03-29T20:03:43.868Z,10.11
2023-03-29T20:06:11.232Z,10.09
2023-03-29T20:08:38.940Z,10.07
2023-03-29T20:11:10.217Z,10.06
2023-03-29T20:13:41.038Z,10.13
2023-03-29T20:16:13.054Z,10.15
2023-03-29T20:18:40.553Z,10.17
2023-03-29T20:21:08.808Z,10.18
2023-03-29T20:23:36.605Z,10.18
2023-03-29T20:26:03.662Z,10.20
2023-03-29T20:28:31.446Z,10.21
2023-03-29T20:31:04.916Z,10.30
2023-03-29T20:33:32.312Z,10.21
2023-03-29T20:35:59.408Z,10.21
2023-03-29T20:38:26.451Z,10.25
2023-03-29T20:40:53.857Z,10.20
2023-03-29T20:43:20.911Z,10.18
2023-03-29T20:45:53.784Z,10.22
2023-03-29T20:48:24.283Z,10.26
2023-03-29T20:50:51.908Z,10.26
2023-03-29T20:53:20.662Z,10.29
2023-03-29T20:55:48.047Z,10.32
2023-03-29T20:58:16.046Z,10.38
2023-03-29T21:00:43.997Z,10.36
2023-03-29T21:03:11.299Z,10.38
2023-03-29T21:05:38.871Z,10.37
2023-03-29T21:08:06.200Z,10.38
2023-03-29T21:10:33.447Z,10.41
2023-03-29T21:13:02.804Z,10.39
2023-03-29T21:15:31.108Z,10.40
2023-03-29T21:17:58.702Z,10.43
2023-03-29T21:20:25.842Z,10.44
2023-03-29T21:22:52.884Z,10.44
2023-03-29T21:25:19.830Z,10.50
2023-03-29T21:27:46.911Z,10.50
2023-03-29T21:30:14.231Z,10.61
2023-03-29T21:32:41.561Z,10.60
2023-03-29T21:35:09.616Z,10.63
2023-03-29T21:37:36.688Z,10.67
2023-03-29T21:40:05.990Z,10.66
2023-03-29T21:42:34.413Z,10.64
2023-03-29T21:45:02.054Z,10.67
2023-03-29T21:47:31.053Z,10.73
2023-03-29T21:49:57.999Z,10.69
2023-03-29T21:52:24.986Z,10.66
2023-03-29T21:54:51.877Z,10.67
2023-03-29T21:57:18.933Z,10.63
2023-03-29T21:59:46.007Z,10.58
2023-03-29T22:02:13.003Z,10.56
2023-03-29T22:04:40.029Z,10.56
2023-03-29T22:07:10.562Z,10.52
2023-03-29T22:09:37.656Z,10.56
2023-03-29T22:12:05.050Z,10.50
2023-03-29T22:14:35.205Z,10.51
2023-03-29T22:17:06.088Z,10.49
2023-03-29T22:19:39.057Z,10.41
2023-03-29T22:22:13.381Z,10.38
2023-03-29T22:24:41.971Z,10.33
2023-03-29T22:27:12.444Z,10.34
2023-03-29T22:29:39.680Z,10.29
2023-03-29T22:32:06.951Z,10.30
2023-03-29T22:34:34.148Z,10.41
2023-03-29T22:37:01.076Z,10.40
2023-03-29T22:39:28.526Z,10.39
2023-03-29T22:41:55.925Z,10.42
2023-03-29T22:44:22.965Z,10.35
2023-03-29T22:46:50.126Z,10.27
2023-03-29T22:49:17.094Z,10.24
2023-03-29T22:51:44.096Z,10.24
2023-03-29T22:54:11.190Z,10.18
2023-03-29T22:56:38.094Z,10.11
2023-03-29T22:59:05.131Z,10.09
2023-03-29T23:01:32.035Z,9.96
2023-03-29T23:03:59.026Z,9.96
2023-03-29T23:06:26.289Z,9.99
2023-03-29T23:08:53.172Z,9.99
2023-03-29T23:11:20.266Z,10.00
2023-03-29T23:13:48.733Z,10.04
2023-03-29T23:16:16.552Z,9.99
2023-03-29T23:18:43.850Z,9.97
2023-03-29T23:21:10.795Z,10.07
2023-03-29T23:23:38.241Z,10.00
2023-03-29T23:26:06.582Z,10.04
2023-03-29T23:28:34.660Z,10.08
2023-03-29T23:31:11.616Z,10.05
2023-03-29T23:33:42.761Z,10.05
2023-03-29T23:36:14.577Z,10.07
2023-03-29T23:38:44.425Z,10.08
2023-03-29T23:41:12.967Z,10.06
2023-03-29T23:43:43.897Z,10.00
2023-03-29T23:46:17.343Z,10.07
2023-03-29T23:48:49.101Z,10.19
2023-03-29T23:51:23.298Z,10.09
2023-03-29T23:53:51.150Z,10.07
2023-03-29T23:56:18.075Z,10.07
2023-03-29T23:58:45.157Z,10.11
